createdAt,value
2018-03-17T00:00:52.609Z,2.60
2018-03-17T00:03:21.622Z,2.60
2018-03-17T00:05:49.891Z,2.50
2018-03-17T00:08:18.925Z,2.60
2018-03-17T00:10:47.235Z,2.50
2018-03-17T00:13:15.519Z,2.60
2018-03-17T00:15:43.867Z,2.70
2018-03-17T00:18:12.107Z,2.70
2018-03-17T00:20:40.378Z,2.80
2018-03-17T00:23:08.636Z,2.90
2018-03-17T00:25:36.968Z,3.10
2018-03-17T00:28:05.216Z,3.20
2018-03-17T00:30:34.361Z,3.50
2018-03-17T00:33:02.647Z,3.40
2018-03-17T00:35:30.920Z,3.60
2018-03-17T00:38:00.684Z,3.70
2018-03-17T00:40:29.022Z,3.70
2018-03-17T00:42:57.298Z,3.90
2018-03-17T00:45:26.844Z,3.90
2018-03-17T00:47:56.036Z,3.90
2018-03-17T00:50:24.424Z,3.90
2018-03-17T00:52:53.500Z,4.00
2018-03-17T00:55:21.769Z,3.90
2018-03-17T00:57:50.040Z,4.00
2018-03-17T01:00:18.293Z,4.00
2018-03-17T01:02:47.331Z,4.00
2018-03-17T01:05:15.603Z,3.90
2018-03-17T01:07:44.675Z,4.10
2018-03-17T01:10:12.968Z,4.10
2018-03-17T01:12:41.248Z,4.10
2018-03-17T01:15:09.544Z,4.10
2018-03-17T01:17:37.800Z,4.20
2018-03-17T01:20:06.081Z,4.20
2018-03-17T01:22:34.344Z,4.20
2018-03-17T01:25:03.373Z,4.10
2018-03-17T01:27:31.649Z,4.00
2018-03-17T01:30:01.398Z,4.00
2018-03-17T01:32:29.778Z,4.00
2018-03-17T01:34:58.106Z,4.10
2018-03-17T01:37:26.437Z,4.10
2018-03-17T01:39:55.912Z,4.00
2018-03-17T01:42:24.309Z,4.00
2018-03-17T01:44:53.386Z,4.00
2018-03-17T01:47:21.678Z,3.90
2018-03-17T01:49:49.940Z,4.00
2018-03-17T01:52:18.982Z,3.90
2018-03-17T01:54:47.252Z,3.90
2018-03-17T01:57:15.507Z,3.90
2018-03-17T01:59:43.842Z,3.90
2018-03-17T02:02:12.105Z,3.90
2018-03-17T02:04:41.188Z,4.00
2018-03-17T02:07:09.439Z,4.00
2018-03-17T02:09:37.709Z,4.10
2018-03-17T02:14:35.598Z,4.20
2018-03-17T02:17:04.624Z,4.30
2018-03-17T02:19:33.656Z,4.30
2018-03-17T02:22:01.944Z,4.20
2018-03-17T02:24:30.267Z,4.30
2018-03-17T02:26:58.580Z,4.30
2018-03-17T02:29:26.944Z,4.40
2018-03-17T02:31:55.298Z,4.40
2018-03-17T02:34:23.577Z,4.50
2018-03-17T02:36:51.833Z,4.50
2018-03-17T02:39:20.120Z,4.50
2018-03-17T02:41:48.362Z,4.50
2018-03-17T02:44:16.638Z,4.50
2018-03-17T02:46:44.918Z,4.60
2018-03-17T02:49:13.226Z,4.60
2018-03-17T02:51:41.477Z,4.70
2018-03-17T02:54:10.501Z,4.70
2018-03-17T02:56:38.753Z,4.60
2018-03-17T02:59:07.818Z,4.80
2018-03-17T03:01:36.069Z,4.80
2018-03-17T03:04:05.196Z,4.80
2018-03-17T03:06:33.489Z,4.70
2018-03-17T03:09:01.744Z,4.70
2018-03-17T03:11:30.789Z,4.70
2018-03-17T03:13:59.836Z,4.70
2018-03-17T03:16:28.182Z,4.70
2018-03-17T03:18:56.488Z,4.60
2018-03-17T03:21:25.210Z,4.60
2018-03-17T03:23:53.477Z,4.50
2018-03-17T03:26:21.761Z,4.40
2018-03-17T03:28:50.028Z,4.20
2018-03-17T03:31:18.304Z,4.00
2018-03-17T03:33:47.370Z,4.00
2018-03-17T03:36:15.648Z,3.90
2018-03-17T03:38:43.976Z,3.90
2018-03-17T03:41:12.266Z,4.00
2018-03-17T03:43:41.296Z,3.90
2018-03-17T03:46:10.355Z,3.80
2018-03-17T03:48:38.604Z,3.80
2018-03-17T03:51:06.899Z,3.80
2018-03-17T03:53:35.938Z,3.70
2018-03-17T03:56:04.208Z,3.70
2018-03-17T03:58:32.474Z,3.70
2018-03-17T04:01:00.740Z,3.70
2018-03-17T04:03:29.059Z,3.60
2018-03-17T04:05:57.438Z,3.60
2018-03-17T04:08:26.547Z,3.50
2018-03-17T04:10:55.782Z,3.50
2018-03-17T04:13:25.082Z,3.50
2018-03-17T04:15:53.359Z,3.50
2018-03-17T04:18:21.648Z,3.50
2018-03-17T04:20:50.687Z,3.50
2018-03-17T04:23:18.942Z,3.40
2018-03-17T04:25:47.984Z,3.50
2018-03-17T04:28:16.252Z,3.40
2018-03-17T04:30:44.619Z,3.40
2018-03-17T04:33:13.713Z,3.20
2018-03-17T04:35:43.594Z,3.10
2018-03-17T04:38:13.384Z,3.20
2018-03-17T04:40:42.462Z,3.20
2018-03-17T04:43:10.718Z,3.10
2018-03-17T04:45:39.751Z,3.00
2018-03-17T04:48:08.002Z,2.90
2018-03-17T04:50:36.256Z,2.90
2018-03-17T04:53:05.296Z,2.90
2018-03-17T04:55:33.549Z,2.80
2018-03-17T04:58:01.823Z,2.80
2018-03-17T05:00:30.159Z,2.80
2018-03-17T05:02:58.536Z,2.80
2018-03-17T05:05:26.945Z,2.60
2018-03-17T05:07:56.191Z,2.60
2018-03-17T05:10:24.482Z,2.50
2018-03-17T05:12:53.631Z,2.50
2018-03-17T05:15:21.907Z,2.40
2018-03-17T05:17:50.248Z,2.40
2018-03-17T05:20:18.511Z,2.50
2018-03-17T05:22:47.585Z,2.50
2018-03-17T05:25:15.840Z,2.50
2018-03-17T05:27:44.127Z,2.50
2018-03-17T05:30:12.823Z,2.50
2018-03-17T05:32:41.090Z,2.50
2018-03-17T05:35:09.375Z,2.40
2018-03-17T05:40:07.268Z,2.40
2018-03-17T05:42:35.540Z,2.50
2018-03-17T05:45:03.813Z,2.40
2018-03-17T05:47:32.095Z,2.50
2018-03-17T05:50:00.436Z,2.50
2018-03-17T05:52:28.759Z,2.50
2018-03-17T05:54:57.269Z,2.40
2018-03-17T05:57:26.524Z,2.50
2018-03-17T05:59:55.761Z,2.50
2018-03-17T06:02:24.137Z,2.50
2018-03-17T06:04:52.475Z,2.50
2018-03-17T06:07:20.721Z,2.40
2018-03-17T06:09:49.764Z,2.20
2018-03-17T06:12:18.025Z,2.10
2018-03-17T06:14:46.298Z,2.10
2018-03-17T06:17:14.590Z,2.00
2018-03-17T06:19:43.681Z,2.10
2018-03-17T06:22:11.961Z,2.00
2018-03-17T06:24:40.237Z,2.00
2018-03-17T06:27:08.497Z,2.00
2018-03-17T06:29:36.785Z,2.00
2018-03-17T06:32:05.043Z,2.00
2018-03-17T06:34:34.076Z,2.00
2018-03-17T06:37:02.344Z,1.90
2018-03-17T06:39:31.414Z,2.00
2018-03-17T06:41:59.720Z,2.00
2018-03-17T06:44:28.097Z,2.00
2018-03-17T06:46:56.511Z,2.00
2018-03-17T06:49:24.895Z,1.90
2018-03-17T06:51:54.019Z,2.10
2018-03-17T06:54:23.146Z,2.10
2018-03-17T06:56:51.410Z,2.10
2018-03-17T06:59:20.467Z,2.20
2018-03-17T07:01:48.765Z,2.10
2018-03-17T07:04:17.043Z,2.20
2018-03-17T07:06:45.303Z,2.30
2018-03-17T07:09:13.592Z,2.20
2018-03-17T07:11:41.892Z,2.30
2018-03-17T07:14:10.180Z,2.30
2018-03-17T07:16:38.436Z,2.20
2018-03-17T07:19:06.775Z,2.10
2018-03-17T07:24:04.592Z,2.00
2018-03-17T07:26:32.921Z,2.10
2018-03-17T07:29:01.986Z,1.80
2018-03-17T07:31:30.264Z,1.80
2018-03-17T07:33:58.566Z,1.80
2018-03-17T07:36:26.980Z,1.80
2018-03-17T07:38:55.277Z,1.90
2018-03-17T07:41:23.651Z,1.90
2018-03-17T07:43:51.944Z,1.90
2018-03-17T07:46:21.052Z,2.00
2018-03-17T07:48:49.304Z,2.00
2018-03-17T07:51:17.618Z,2.00
2018-03-17T07:53:46.833Z,1.90
2018-03-17T07:56:16.032Z,1.80
2018-03-17T07:58:44.306Z,1.80
2018-03-17T08:01:12.604Z,1.90
2018-03-17T08:03:40.876Z,1.90
2018-03-17T08:06:10.219Z,1.90
2018-03-17T08:08:38.517Z,1.80
2018-03-17T08:11:06.809Z,1.90
2018-03-17T08:13:35.076Z,1.90
2018-03-17T08:16:03.351Z,1.90
2018-03-17T08:18:32.539Z,1.80
2018-03-17T08:21:01.287Z,1.80
2018-03-17T08:23:30.156Z,1.80
2018-03-17T08:25:59.871Z,1.90
2018-03-17T08:28:29.610Z,2.00
2018-03-17T08:30:58.187Z,2.00
2018-03-17T08:33:28.161Z,2.10
2018-03-17T08:35:56.967Z,2.10
2018-03-17T08:38:25.508Z,2.10
2018-03-17T08:40:55.507Z,2.00
2018-03-17T08:43:23.965Z,2.00
2018-03-17T08:45:52.506Z,2.10
2018-03-17T08:48:21.185Z,2.00
2018-03-17T08:50:49.554Z,2.00
2018-03-17T08:53:17.911Z,2.00
2018-03-17T08:55:47.496Z,1.90
2018-03-17T08:58:15.935Z,1.90
2018-03-17T09:00:44.449Z,1.90
2018-03-17T09:03:12.775Z,1.90
2018-03-17T09:05:42.228Z,1.90
2018-03-17T09:08:10.652Z,1.80
2018-03-17T09:10:39.176Z,1.80
2018-03-17T09:13:08.435Z,1.80
2018-03-17T09:15:37.497Z,1.80
2018-03-17T09:18:05.984Z,1.80
2018-03-17T09:20:34.441Z,1.90
2018-03-17T09:23:02.728Z,1.90
2018-03-17T09:25:31.766Z,1.80
2018-03-17T09:28:00.846Z,1.70
2018-03-17T09:30:29.288Z,1.80
2018-03-17T09:32:57.704Z,1.90
2018-03-17T09:35:26.962Z,2.10
2018-03-17T09:37:56.119Z,2.10
2018-03-17T09:40:24.593Z,2.10
2018-03-17T09:42:52.910Z,2.20
2018-03-17T09:45:22.056Z,2.20
2018-03-17T09:47:50.660Z,2.10
2018-03-17T09:50:19.684Z,2.20
2018-03-17T09:52:48.210Z,2.10
2018-03-17T09:55:16.789Z,2.20
2018-03-17T09:57:46.105Z,2.20
2018-03-17T10:00:14.788Z,2.20
2018-03-17T10:02:43.402Z,2.30
2018-03-17T10:05:12.552Z,2.50
2018-03-17T10:07:41.780Z,2.50
2018-03-17T10:10:11.050Z,2.40
2018-03-17T10:12:40.814Z,2.40
2018-03-17T10:15:09.117Z,2.40
2018-03-17T10:17:37.487Z,2.40
2018-03-17T10:20:05.791Z,2.60
2018-03-17T10:22:34.085Z,2.50
2018-03-17T10:25:02.461Z,2.40
2018-03-17T10:27:30.703Z,2.50
2018-03-17T10:29:59.041Z,2.50
2018-03-17T10:32:27.468Z,2.50
2018-03-17T10:34:55.971Z,2.50
2018-03-17T10:37:24.599Z,2.70
2018-03-17T10:39:53.694Z,2.80
2018-03-17T10:42:22.772Z,2.80
2018-03-17T10:44:51.183Z,2.80
2018-03-17T10:47:19.664Z,2.80
2018-03-17T10:49:48.085Z,2.80
2018-03-17T10:52:16.361Z,2.80
2018-03-17T10:54:45.420Z,3.00
2018-03-17T10:57:13.744Z,3.00
2018-03-17T10:59:42.052Z,3.10
2018-03-17T11:02:10.305Z,3.20
2018-03-17T11:04:38.581Z,3.20
2018-03-17T11:07:06.931Z,3.30
2018-03-17T11:09:35.223Z,3.00
2018-03-17T11:12:03.508Z,3.00
2018-03-17T11:14:31.768Z,2.90
2018-03-17T11:17:00.074Z,2.80
2018-03-17T11:19:28.361Z,2.90
2018-03-17T11:21:56.677Z,2.60
2018-03-17T11:24:25.170Z,2.60
2018-03-17T11:26:53.646Z,2.70
2018-03-17T11:29:22.089Z,2.70
2018-03-17T11:31:50.813Z,2.70
2018-03-17T11:34:19.390Z,2.70
2018-03-17T11:36:47.909Z,2.70
2018-03-17T11:39:16.667Z,2.80
2018-03-17T11:41:46.594Z,2.80
2018-03-17T11:44:15.452Z,2.80
2018-03-17T11:46:45.073Z,2.90
2018-03-17T11:49:13.688Z,2.80
2018-03-17T11:51:45.545Z,2.60
2018-03-17T11:54:14.119Z,2.50
2018-03-17T11:56:42.727Z,2.50
2018-03-17T11:59:11.526Z,2.50
2018-03-17T12:01:40.498Z,2.50
2018-03-17T12:04:09.284Z,2.70
2018-03-17T12:06:38.342Z,2.60
2018-03-17T12:09:06.708Z,2.60
2018-03-17T12:11:35.116Z,2.60
2018-03-17T12:14:03.459Z,2.70
2018-03-17T12:16:32.599Z,2.80
2018-03-17T12:19:01.043Z,2.80
2018-03-17T12:21:29.416Z,2.90
2018-03-17T12:23:57.800Z,3.00
2018-03-17T12:26:26.928Z,3.10
2018-03-17T12:28:55.529Z,2.90
2018-03-17T12:31:24.240Z,2.90
2018-03-17T12:33:53.424Z,2.70
2018-03-17T12:36:21.877Z,2.70
2018-03-17T12:38:50.189Z,2.70
2018-03-17T12:41:19.207Z,2.60
2018-03-17T12:43:47.739Z,2.60
2018-03-17T12:46:17.315Z,2.50
2018-03-17T12:48:45.775Z,2.50
2018-03-17T12:51:14.090Z,2.50
2018-03-17T12:53:42.393Z,2.40
2018-03-17T12:56:11.468Z,2.50
2018-03-17T12:58:40.687Z,2.40
2018-03-17T13:01:08.973Z,2.50
2018-03-17T13:03:37.783Z,2.50
2018-03-17T13:06:06.452Z,2.50
2018-03-17T13:08:35.500Z,2.50
2018-03-17T13:11:03.976Z,2.40
2018-03-17T13:13:32.636Z,2.40
2018-03-17T13:18:31.520Z,2.40
2018-03-17T13:20:59.809Z,2.30
2018-03-17T13:23:28.139Z,2.40
2018-03-17T13:25:58.005Z,2.30
2018-03-17T13:28:30.111Z,2.30
2018-03-17T13:30:58.656Z,2.30
2018-03-17T13:33:27.324Z,2.20
2018-03-17T13:36:13.509Z,2.30
2018-03-17T13:38:42.050Z,2.30
2018-03-17T13:41:11.915Z,2.40
2018-03-17T13:46:11.132Z,2.40
2018-03-17T13:48:40.502Z,2.40
2018-03-17T13:51:09.013Z,2.40
2018-03-17T13:56:14.882Z,2.30
2018-03-17T13:58:43.485Z,2.30
2018-03-17T14:01:12.103Z,2.30
2018-03-17T14:03:40.610Z,2.30
2018-03-17T14:06:08.936Z,2.30
2018-03-17T14:08:37.680Z,2.30
2018-03-17T14:11:06.081Z,2.30
2018-03-17T14:13:34.949Z,2.20
2018-03-17T14:16:03.383Z,2.10
2018-03-17T14:18:32.265Z,2.10
2018-03-17T14:21:00.684Z,2.00
2018-03-17T14:23:29.335Z,2.00
2018-03-17T14:25:58.524Z,2.00
2018-03-17T14:28:27.200Z,1.90
2018-03-17T14:30:56.236Z,1.90
2018-03-17T14:33:25.181Z,1.80
2018-03-17T14:35:53.723Z,1.80
2018-03-17T14:38:22.518Z,1.80
2018-03-17T14:40:52.132Z,1.80
2018-03-17T14:43:20.810Z,1.80
2018-03-17T14:45:49.539Z,1.90
2018-03-17T14:48:18.961Z,1.90
2018-03-17T14:50:48.428Z,1.80
2018-03-17T14:53:17.230Z,1.80
2018-03-17T14:55:45.999Z,1.90
2018-03-17T14:58:14.990Z,1.90
2018-03-17T15:00:43.634Z,1.80
2018-03-17T15:03:12.091Z,1.80
2018-03-17T15:05:40.652Z,1.70
2018-03-17T15:08:10.038Z,1.60
2018-03-17T15:10:38.607Z,1.60
2018-03-17T15:13:07.222Z,1.60
2018-03-17T15:15:35.834Z,1.70
2018-03-17T15:18:04.454Z,1.60
2018-03-17T15:20:32.855Z,1.60
2018-03-17T15:23:01.760Z,1.60
2018-03-17T15:25:31.112Z,1.50
2018-03-17T15:28:00.303Z,1.50
2018-03-17T15:30:29.999Z,1.50
2018-03-17T15:32:58.571Z,1.40
2018-03-17T15:35:27.343Z,1.40
2018-03-17T15:37:56.068Z,1.40
2018-03-17T15:40:24.882Z,1.40
2018-03-17T15:42:55.064Z,1.30
2018-03-17T15:45:23.578Z,1.30
2018-03-17T15:47:52.179Z,1.30
2018-03-17T15:50:20.634Z,1.20
2018-03-17T15:52:49.321Z,1.20
2018-03-17T15:55:18.892Z,1.20
2018-03-17T15:57:47.950Z,1.20
2018-03-17T16:00:16.472Z,1.20
2018-03-17T16:02:45.367Z,1.10
2018-03-17T16:05:14.046Z,1.20
2018-03-17T16:07:43.313Z,1.20
2018-03-17T16:10:11.658Z,1.10
2018-03-17T16:12:41.225Z,1.30
2018-03-17T16:15:09.958Z,1.20
2018-03-17T16:17:38.886Z,1.20
2018-03-17T16:20:08.105Z,1.10
2018-03-17T16:22:37.567Z,1.10
2018-03-17T16:25:06.179Z,1.10
2018-03-17T16:27:34.921Z,1.20
2018-03-17T16:30:03.404Z,1.20
2018-03-17T16:32:31.885Z,1.20
2018-03-17T16:35:00.561Z,1.20
2018-03-17T16:37:29.430Z,1.20
2018-03-17T16:39:58.225Z,1.20
2018-03-17T16:42:26.964Z,1.10
2018-03-17T16:44:55.672Z,1.10
2018-03-17T16:47:26.048Z,1.00
2018-03-17T16:49:54.680Z,0.90
2018-03-17T16:52:23.154Z,1.00
2018-03-17T16:54:51.538Z,1.00
2018-03-17T16:57:19.955Z,1.00
2018-03-17T16:59:48.373Z,0.90
2018-03-17T17:02:17.090Z,0.90
2018-03-17T17:04:45.712Z,0.90
2018-03-17T17:07:14.186Z,0.90
2018-03-17T17:09:43.442Z,0.90
2018-03-17T17:12:12.733Z,0.80
2018-03-17T17:14:42.017Z,0.80
2018-03-17T17:17:10.485Z,0.80
2018-03-17T17:19:39.809Z,0.80
2018-03-17T17:22:09.416Z,0.70
2018-03-17T17:24:37.909Z,0.70
2018-03-17T17:27:06.680Z,0.80
2018-03-17T17:29:35.502Z,0.80
2018-03-17T17:32:03.969Z,0.80
2018-03-17T17:34:32.430Z,0.70
2018-03-17T17:37:01.482Z,0.70
2018-03-17T17:39:30.116Z,0.70
2018-03-17T17:41:58.690Z,0.70
2018-03-17T17:44:27.321Z,0.70
2018-03-17T17:46:56.419Z,0.70
2018-03-17T17:49:25.640Z,0.70
2018-03-17T17:51:55.166Z,1.70
2018-03-17T17:54:24.253Z,0.70
2018-03-17T17:56:53.158Z,0.70
2018-03-17T17:59:21.835Z,0.70
2018-03-17T18:01:50.442Z,0.70
2018-03-17T18:04:19.717Z,0.50
2018-03-17T18:06:48.183Z,0.50
2018-03-17T18:09:16.815Z,0.50
2018-03-17T18:11:45.302Z,0.50
2018-03-17T18:14:14.410Z,0.50
2018-03-17T18:16:43.155Z,0.50
2018-03-17T18:19:12.138Z,0.40
2018-03-17T18:21:40.658Z,0.40
2018-03-17T18:24:09.015Z,0.40
2018-03-17T18:26:37.646Z,0.30
2018-03-17T18:29:06.868Z,0.30
2018-03-17T18:31:35.506Z,0.20
2018-03-17T18:34:04.174Z,0.30
2018-03-17T18:36:32.439Z,0.20
2018-03-17T18:39:01.097Z,0.20
2018-03-17T18:41:30.210Z,0.20
2018-03-17T18:43:58.792Z,0.30
2018-03-17T18:46:27.657Z,0.30
2018-03-17T18:48:55.993Z,0.30
2018-03-17T18:51:24.357Z,0.20
2018-03-17T18:53:54.665Z,0.20
2018-03-17T18:56:23.275Z,0.20
2018-03-17T18:58:51.583Z,0.20
2018-03-17T19:01:20.281Z,0.20
2018-03-17T19:03:50.594Z,0.10
2018-03-17T19:06:18.883Z,0.10
2018-03-17T19:08:47.200Z,0.10
2018-03-17T19:11:16.478Z,0.00
2018-03-17T19:13:45.144Z,0.00
2018-03-17T19:16:13.571Z,0.10
2018-03-17T19:18:41.995Z,0.00
2018-03-17T19:21:11.174Z,0.10
2018-03-17T19:23:39.741Z,0.10
2018-03-17T19:26:08.554Z,0.00
2018-03-17T19:28:37.087Z,0.00
2018-03-17T19:31:05.858Z,-0.10
2018-03-17T19:33:34.717Z,0.00
2018-03-17T19:36:03.806Z,-0.10
2018-03-17T19:38:32.396Z,-0.10
2018-03-17T19:41:00.744Z,-0.10
2018-03-17T19:43:29.491Z,-0.20
2018-03-17T19:45:58.070Z,-0.20
2018-03-17T19:48:27.350Z,-0.30
2018-03-17T19:50:55.924Z,-0.30
2018-03-17T19:53:24.614Z,-0.30
2018-03-17T19:55:54.278Z,-0.30
2018-03-17T19:58:22.856Z,-0.30
2018-03-17T20:00:51.437Z,-0.30
2018-03-17T20:03:20.269Z,-0.30
2018-03-17T20:05:48.870Z,-0.30
2018-03-17T20:08:18.084Z,-0.40
2018-03-17T20:10:46.841Z,-0.40
2018-03-17T20:13:16.242Z,-0.40
2018-03-17T20:15:44.897Z,-0.40
2018-03-17T20:18:13.665Z,-0.40
2018-03-17T20:20:42.126Z,-0.40
2018-03-17T20:23:11.078Z,-0.50
2018-03-17T20:25:40.095Z,-0.40
2018-03-17T20:28:08.676Z,-0.40
2018-03-17T20:30:37.170Z,-0.40
2018-03-17T20:33:05.791Z,-0.40
2018-03-17T20:35:34.733Z,-0.40
2018-03-17T20:38:03.112Z,-0.40
2018-03-17T20:40:31.684Z,-0.50
2018-03-17T20:43:00.582Z,-0.50
2018-03-17T20:45:29.000Z,-0.50
2018-03-17T20:47:57.747Z,-0.50
2018-03-17T20:50:26.547Z,-0.50
2018-03-17T20:52:55.437Z,-0.60
2018-03-17T20:55:24.725Z,-0.60
2018-03-17T20:57:53.137Z,-0.60
2018-03-17T21:00:22.536Z,-0.70
2018-03-17T21:02:51.398Z,-0.80
2018-03-17T21:05:21.273Z,-0.80
2018-03-17T21:07:49.937Z,-0.80
2018-03-17T21:10:18.856Z,-0.90
2018-03-17T21:12:47.424Z,-0.90
2018-03-17T21:15:16.356Z,-0.90
2018-03-17T21:17:45.769Z,-1.00
2018-03-17T21:20:15.162Z,-1.00
2018-03-17T21:22:43.832Z,-1.00
2018-03-17T21:25:12.961Z,-1.10
2018-03-17T21:27:41.316Z,-1.20
2018-03-17T21:30:09.863Z,-1.20
2018-03-17T21:32:39.047Z,-1.30
2018-03-17T21:35:07.516Z,-1.30
2018-03-17T21:37:36.742Z,-1.30
2018-03-17T21:40:05.311Z,-1.40
2018-03-17T21:42:34.166Z,-1.40
2018-03-17T21:45:02.976Z,-1.40
2018-03-17T21:47:31.356Z,-1.40
2018-03-17T21:49:59.968Z,-1.30
2018-03-17T21:52:28.331Z,-1.30
2018-03-17T21:54:57.830Z,-1.40
2018-03-17T21:57:27.666Z,-1.50
2018-03-17T21:59:56.415Z,-1.50
2018-03-17T22:02:25.159Z,-1.50
2018-03-17T22:04:53.540Z,-1.60
2018-03-17T22:07:21.859Z,-1.60
2018-03-17T22:09:50.145Z,-1.60
2018-03-17T22:12:18.562Z,-1.50
2018-03-17T22:14:46.868Z,-1.50
2018-03-17T22:17:15.246Z,-1.50
2018-03-17T22:19:43.589Z,-1.50
2018-03-17T22:22:12.635Z,-1.60
2018-03-17T22:24:40.944Z,-1.60
2018-03-17T22:27:09.200Z,-1.60
2018-03-17T22:29:37.489Z,-1.70
2018-03-17T22:32:05.789Z,-1.80
2018-03-17T22:34:34.136Z,-1.80
2018-03-17T22:37:02.441Z,-1.70
2018-03-17T22:39:32.224Z,-1.80
2018-03-17T22:42:00.521Z,-1.90
2018-03-17T22:44:28.834Z,-1.80
2018-03-17T22:46:58.027Z,-1.70
2018-03-17T22:49:26.560Z,-1.80
2018-03-17T22:51:55.036Z,-1.80
2018-03-17T22:54:24.752Z,-1.80
2018-03-17T22:56:53.267Z,-1.90
2018-03-17T22:59:21.574Z,-1.90
2018-03-17T23:01:49.841Z,-1.90
2018-03-17T23:04:18.901Z,-2.00
2018-03-17T23:06:47.205Z,-2.10
2018-03-17T23:11:45.178Z,-2.00
2018-03-17T23:14:13.452Z,-2.00
2018-03-17T23:16:43.608Z,-2.10
2018-03-17T23:19:11.893Z,-2.10
2018-03-17T23:21:40.178Z,-2.10
2018-03-17T23:24:08.492Z,-2.10
2018-03-17T23:26:36.781Z,-2.20
2018-03-17T23:29:05.052Z,-2.30
2018-03-17T23:31:33.396Z,-2.20
2018-03-17T23:34:01.685Z,-2.30
2018-03-17T23:36:29.977Z,-2.40
2018-03-17T23:38:58.287Z,-2.40
2018-03-17T23:41:26.929Z,-2.30
2018-03-17T23:43:56.081Z,-2.30
2018-03-17T23:46:25.560Z,-2.30
2018-03-17T23:48:53.872Z,-2.30
2018-03-17T23:51:22.144Z,-2.20
2018-03-17T23:53:50.417Z,-2.30
2018-03-17T23:56:18.714Z,-2.20
2018-03-17T23:58:47.006Z,-2.30
